createdAt,value
2018-05-03T00:00:53.332Z,47.00
2018-05-03T00:03:20.340Z,47.00
2018-05-03T00:05:47.333Z,46.50
2018-05-03T00:08:14.324Z,47.00
2018-05-03T00:10:41.340Z,48.30
2018-05-03T00:13:08.325Z,45.70
2018-05-03T00:15:35.310Z,47.30
2018-05-03T00:18:03.152Z,47.90
2018-05-03T00:20:30.129Z,45.80
2018-05-03T00:25:24.229Z,47.30
2018-05-03T00:27:52.299Z,46.10
2018-05-03T00:30:19.283Z,46.70
2018-05-03T00:32:46.296Z,47.50
2018-05-03T00:35:14.222Z,46.50
2018-05-03T00:37:41.593Z,45.90
2018-05-03T00:40:08.613Z,46.50
2018-05-03T00:42:35.592Z,46.10
2018-05-03T00:45:02.576Z,47.00
2018-05-03T00:47:29.598Z,45.80
2018-05-03T00:49:56.589Z,46.00
2018-05-03T00:52:23.565Z,45.00
2018-05-03T00:54:50.580Z,45.30
2018-05-03T00:57:17.557Z,45.10
2018-05-03T00:59:44.619Z,46.40
2018-05-03T01:02:12.452Z,47.10
2018-05-03T01:04:39.431Z,47.90
2018-05-03T01:09:33.505Z,48.70
2018-05-03T01:12:00.486Z,48.50
2018-05-03T01:14:27.459Z,48.10
2018-05-03T01:16:54.472Z,48.40
2018-05-03T01:19:21.458Z,48.30
2018-05-03T01:24:27.042Z,49.40
2018-05-03T01:26:53.924Z,49.10
2018-05-03T01:29:21.084Z,48.90
2018-05-03T01:31:48.108Z,48.60
2018-05-03T01:34:15.085Z,49.00
2018-05-03T01:36:42.066Z,49.20
2018-05-03T01:39:10.041Z,50.80
2018-05-03T01:41:37.036Z,52.70
2018-05-03T01:44:04.846Z,57.10
2018-05-03T01:46:31.858Z,61.50
2018-05-03T01:48:59.715Z,70.80
2018-05-03T01:51:26.693Z,76.40
2018-05-03T01:53:53.716Z,80.20
2018-05-03T01:56:20.693Z,88.40
2018-05-03T01:58:47.670Z,91.20
2018-05-03T02:01:14.778Z,92.90
2018-05-03T02:03:41.677Z,93.40
2018-05-03T02:06:08.665Z,93.10
2018-05-03T02:08:35.688Z,92.80
2018-05-03T02:11:02.669Z,93.80
2018-05-03T02:13:29.650Z,94.90
2018-05-03T02:15:56.678Z,93.40
2018-05-03T02:18:23.662Z,90.90
2018-05-03T02:20:50.648Z,91.70
2018-05-03T02:23:17.673Z,91.90
2018-05-03T02:25:44.657Z,92.70
2018-05-03T02:28:11.684Z,93.40
2018-05-03T02:33:05.778Z,95.20
2018-05-03T02:35:32.758Z,94.60
2018-05-03T02:37:59.787Z,95.60
2018-05-03T02:40:26.772Z,95.60
2018-05-03T02:42:53.747Z,95.60
2018-05-03T02:48:01.223Z,94.70
2018-05-03T02:50:28.251Z,95.30
2018-05-03T02:52:55.956Z,94.40
2018-05-03T02:55:22.936Z,94.00
2018-05-03T02:58:01.964Z,94.00
2018-05-03T03:00:40.712Z,96.60
2018-05-03T03:03:19.553Z,96.50
2018-05-03T03:05:58.361Z,95.60
2018-05-03T03:08:37.796Z,94.60
2018-05-03T03:14:03.932Z,93.70
2018-05-03T03:16:42.632Z,94.80
2018-05-03T03:19:21.514Z,94.90
2018-05-03T03:22:00.411Z,96.40
2018-05-03T03:24:39.262Z,95.40
2018-05-03T03:27:18.110Z,95.90
2018-05-03T03:29:56.990Z,97.00
2018-05-03T03:32:35.566Z,97.20
2018-05-03T03:45:37.255Z,96.70
2018-05-03T03:48:04.233Z,98.30
2018-05-03T03:50:31.221Z,99.00
2018-05-03T03:52:58.222Z,99.30
2018-05-03T03:55:25.207Z,99.50
2018-05-03T03:57:52.189Z,99.80
2018-05-03T04:00:20.034Z,99.90
2018-05-03T04:05:14.091Z,99.90
2018-05-03T04:07:41.102Z,99.70
2018-05-03T04:10:08.099Z,99.90
2018-05-03T04:12:35.078Z,99.20
2018-05-03T04:15:03.241Z,99.10
2018-05-03T04:20:15.057Z,99.00
2018-05-03T04:25:26.646Z,98.60
2018-05-03T04:27:53.631Z,99.90
2018-05-03T04:30:20.612Z,99.90
2018-05-03T04:32:47.630Z,99.90
2018-05-03T04:35:14.626Z,99.90
2018-05-03T04:37:41.624Z,99.90
2018-05-03T04:40:08.636Z,99.90
2018-05-03T04:42:35.619Z,99.90
2018-05-03T04:45:02.602Z,99.90
2018-05-03T04:47:29.646Z,99.90
2018-05-03T04:52:23.706Z,99.90
2018-05-03T04:54:50.738Z,99.90
2018-05-03T04:57:17.722Z,99.90
2018-05-03T04:59:44.721Z,99.90
2018-05-03T05:02:11.743Z,99.90
2018-05-03T05:04:38.738Z,99.90
2018-05-03T05:07:06.108Z,99.90
2018-05-03T05:12:11.589Z,99.90
2018-05-03T05:17:05.680Z,99.90
2018-05-03T05:19:35.044Z,99.90
2018-05-03T05:22:02.064Z,99.90
2018-05-03T05:24:29.063Z,99.90
2018-05-03T05:26:56.160Z,99.90
2018-05-03T05:29:23.186Z,99.90
2018-05-03T05:31:50.172Z,99.90
2018-05-03T05:34:17.995Z,99.90
2018-05-03T05:36:46.861Z,99.90
2018-05-03T05:39:13.862Z,99.90
2018-05-03T05:41:41.171Z,99.90
2018-05-03T05:44:08.190Z,99.90
2018-05-03T05:46:38.125Z,99.90
2018-05-03T05:49:05.114Z,99.90
2018-05-03T05:51:32.144Z,99.90
2018-05-03T05:53:59.124Z,99.90
2018-05-03T05:56:26.112Z,99.90
2018-05-03T05:58:53.144Z,99.90
2018-05-03T06:01:20.957Z,99.90
2018-05-03T06:03:47.933Z,99.90
2018-05-03T06:06:14.954Z,99.90
2018-05-03T06:08:41.935Z,99.50
2018-05-03T06:11:08.923Z,98.50
2018-05-03T06:13:35.946Z,98.70
2018-05-03T06:16:02.921Z,97.30
2018-05-03T06:18:29.906Z,97.60
2018-05-03T06:20:58.725Z,97.20
2018-05-03T06:23:25.701Z,97.90
2018-05-03T06:25:52.684Z,97.00
2018-05-03T06:28:19.711Z,95.70
2018-05-03T06:30:46.684Z,95.90
2018-05-03T06:35:52.168Z,92.30
2018-05-03T06:38:19.151Z,91.20
2018-05-03T06:40:46.133Z,90.30
2018-05-03T06:45:40.214Z,89.70
2018-05-03T06:48:08.137Z,85.90
2018-05-03T06:50:35.165Z,85.40
2018-05-03T06:53:02.975Z,86.00
2018-05-03T06:55:29.961Z,86.40
2018-05-03T06:57:57.691Z,84.30
2018-05-03T07:00:24.464Z,86.40
2018-05-03T07:02:51.454Z,85.20
2018-05-03T07:05:18.487Z,84.40
2018-05-03T07:07:45.773Z,81.80
2018-05-03T07:10:12.709Z,83.40
2018-05-03T07:12:39.727Z,83.30
2018-05-03T07:15:06.717Z,79.50
2018-05-03T07:17:33.702Z,81.70
2018-05-03T07:20:00.717Z,84.00
2018-05-03T07:22:28.650Z,83.20
2018-05-03T07:24:55.638Z,82.70
2018-05-03T07:27:23.549Z,80.20
2018-05-03T07:32:28.833Z,76.10
2018-05-03T07:34:55.834Z,76.90
2018-05-03T07:37:22.793Z,74.40
2018-05-03T07:39:49.819Z,70.80
2018-05-03T07:42:16.816Z,71.40
2018-05-03T07:44:44.725Z,69.70
2018-05-03T07:47:11.742Z,67.00
2018-05-03T07:52:05.794Z,61.90
2018-05-03T07:54:32.836Z,56.20
2018-05-03T07:56:59.782Z,52.20
2018-05-03T07:59:27.708Z,50.00
2018-05-03T08:01:55.485Z,46.80
2018-05-03T08:04:22.547Z,47.90
2018-05-03T08:06:50.147Z,44.90
2018-05-03T08:11:44.227Z,46.70
2018-05-03T08:14:11.204Z,45.00
2018-05-03T08:16:38.214Z,48.40
2018-05-03T08:19:05.198Z,49.10
2018-05-03T08:21:32.178Z,52.20
2018-05-03T08:23:59.193Z,52.90
2018-05-03T08:26:26.176Z,52.40
2018-05-03T08:28:53.162Z,50.00
2018-05-03T08:31:20.197Z,50.80
2018-05-03T08:33:47.171Z,45.70
2018-05-03T08:36:14.388Z,42.70
2018-05-03T08:41:09.422Z,43.80
2018-05-03T08:43:36.407Z,43.20
2018-05-03T08:46:03.432Z,40.20
2018-05-03T08:48:30.412Z,40.50
2018-05-03T08:50:57.409Z,33.00
2018-05-03T08:53:24.420Z,33.70
2018-05-03T08:58:30.838Z,32.10
2018-05-03T09:00:57.816Z,31.10
2018-05-03T09:03:26.255Z,30.90
2018-05-03T09:05:51.815Z,30.00
2018-05-03T09:08:18.789Z,30.10
2018-05-03T09:10:45.772Z,32.00
2018-05-03T09:13:12.789Z,30.30
2018-05-03T09:15:39.769Z,29.30
2018-05-03T09:18:06.748Z,28.40
2018-05-03T09:20:33.778Z,30.00
2018-05-03T09:23:01.585Z,31.10
2018-05-03T09:27:55.667Z,30.00
2018-05-03T09:30:22.650Z,29.40
2018-05-03T09:32:49.700Z,29.60
2018-05-03T09:35:16.658Z,29.70
2018-05-03T09:37:46.456Z,30.50
2018-05-03T09:40:11.431Z,29.70
2018-05-03T09:42:38.451Z,31.10
2018-05-03T09:47:33.441Z,27.60
2018-05-03T09:50:00.461Z,27.30
2018-05-03T09:52:27.515Z,27.40
2018-05-03T09:54:55.248Z,26.60
2018-05-03T09:57:22.274Z,24.90
2018-05-03T10:02:16.317Z,22.70
2018-05-03T10:04:43.407Z,24.90
2018-05-03T10:07:13.124Z,24.00
2018-05-03T10:09:37.299Z,25.40
2018-05-03T10:12:04.327Z,26.90
2018-05-03T10:14:32.219Z,23.20
2018-05-03T10:17:01.245Z,25.10
2018-05-03T10:19:28.261Z,24.90
2018-05-03T10:24:33.748Z,22.40
2018-05-03T10:27:00.724Z,22.60
2018-05-03T10:29:27.704Z,25.70
2018-05-03T10:31:54.716Z,25.30
2018-05-03T10:34:21.696Z,26.80
2018-05-03T10:36:48.675Z,26.10
2018-05-03T10:39:15.702Z,26.20
2018-05-03T10:41:42.692Z,25.20
2018-05-03T10:44:09.667Z,25.60
2018-05-03T10:46:40.585Z,24.40
2018-05-03T10:49:07.643Z,25.90
2018-05-03T10:51:34.542Z,25.40
2018-05-03T10:54:02.296Z,25.40
2018-05-03T10:56:28.951Z,25.80
2018-05-03T10:58:55.925Z,23.10
2018-05-03T11:01:22.961Z,25.00
2018-05-03T11:03:49.941Z,24.90
2018-05-03T11:06:16.921Z,23.60
2018-05-03T11:08:43.933Z,23.50
2018-05-03T11:11:11.733Z,24.20
2018-05-03T11:13:38.710Z,23.80
2018-05-03T11:16:05.751Z,24.20
2018-05-03T11:18:32.735Z,25.60
2018-05-03T11:20:59.717Z,26.20
2018-05-03T11:23:26.746Z,25.30
2018-05-03T11:25:55.213Z,25.40
2018-05-03T11:31:01.483Z,25.50
2018-05-03T11:33:28.951Z,24.50
2018-05-03T11:35:55.925Z,23.90
2018-05-03T11:38:22.943Z,25.50
2018-05-03T11:40:49.925Z,24.10
2018-05-03T11:43:17.248Z,22.50
2018-05-03T11:45:44.258Z,22.90
2018-05-03T11:48:11.230Z,24.00
2018-05-03T11:50:38.217Z,22.70
2018-05-03T11:53:06.089Z,22.50
2018-05-03T11:55:33.073Z,21.90
2018-05-03T11:58:00.060Z,23.60
2018-05-03T12:00:27.073Z,23.00
2018-05-03T12:02:54.062Z,22.30
2018-05-03T12:05:21.043Z,21.90
2018-05-03T12:07:48.075Z,23.10
2018-05-03T12:10:15.055Z,22.30
2018-05-03T12:12:42.089Z,23.10
2018-05-03T12:15:09.106Z,22.80
2018-05-03T12:17:36.082Z,22.10
2018-05-03T12:20:03.065Z,21.10
2018-05-03T12:22:30.079Z,20.80
2018-05-03T12:24:57.059Z,21.80
2018-05-03T12:27:24.036Z,21.70
2018-05-03T12:29:51.040Z,22.20
2018-05-03T12:32:18.023Z,21.90
2018-05-03T12:34:45.002Z,20.60
2018-05-03T12:37:12.021Z,20.30
2018-05-03T12:39:39.014Z,19.50
2018-05-03T12:42:05.996Z,20.10
2018-05-03T12:44:33.009Z,20.00
2018-05-03T12:46:59.989Z,20.00
2018-05-03T12:49:26.969Z,20.00
2018-05-03T12:51:53.990Z,19.10
2018-05-03T12:56:59.482Z,19.90
2018-05-03T12:59:26.464Z,21.20
2018-05-03T13:01:53.439Z,21.00
2018-05-03T13:07:00.538Z,19.20
2018-05-03T13:09:27.550Z,19.80
2018-05-03T13:11:54.523Z,19.90
2018-05-03T13:14:21.554Z,19.10
2018-05-03T13:16:48.509Z,20.00
2018-05-03T13:19:15.494Z,19.50
2018-05-03T13:21:42.472Z,20.60
2018-05-03T13:24:09.492Z,20.50
2018-05-03T13:26:36.464Z,22.10
2018-05-03T13:29:04.314Z,21.70
2018-05-03T13:31:31.456Z,21.80
2018-05-03T13:33:58.435Z,22.50
2018-05-03T13:36:25.414Z,21.00
2018-05-03T13:38:52.425Z,21.30
2018-05-03T13:41:19.434Z,21.60
2018-05-03T13:43:46.394Z,21.40
2018-05-03T13:46:13.396Z,22.10
2018-05-03T13:48:40.379Z,20.70
2018-05-03T13:51:07.369Z,21.50
2018-05-03T13:53:34.377Z,21.40
2018-05-03T13:56:01.352Z,21.40
2018-05-03T13:58:28.332Z,21.10
2018-05-03T14:00:55.425Z,22.00
2018-05-03T14:03:22.347Z,21.70
2018-05-03T14:05:49.327Z,22.40
2018-05-03T14:08:16.356Z,23.00
2018-05-03T14:10:43.339Z,23.00
2018-05-03T14:13:10.317Z,23.40
2018-05-03T14:15:37.344Z,23.10
2018-05-03T14:18:04.327Z,22.90
2018-05-03T14:20:31.310Z,23.80
2018-05-03T14:22:58.337Z,23.40
2018-05-03T14:25:25.316Z,23.60
2018-05-03T14:27:52.288Z,23.70
2018-05-03T14:32:57.768Z,22.40
2018-05-03T14:35:24.770Z,23.40
2018-05-03T14:37:51.750Z,23.10
2018-05-03T14:40:19.469Z,24.10
2018-05-03T14:42:46.478Z,24.80
2018-05-03T14:47:40.524Z,25.80
2018-05-03T14:50:07.539Z,23.80
2018-05-03T14:52:34.521Z,24.50
2018-05-03T14:57:39.632Z,24.40
2018-05-03T15:00:06.609Z,25.20
2018-05-03T15:02:33.590Z,25.80
2018-05-03T15:05:00.607Z,26.70
2018-05-03T15:07:30.377Z,26.80
2018-05-03T15:09:54.563Z,27.20
2018-05-03T15:12:21.581Z,27.90
2018-05-03T15:14:48.554Z,28.50
2018-05-03T15:17:15.528Z,28.20
2018-05-03T15:19:42.550Z,28.60
2018-05-03T15:22:09.531Z,28.70
2018-05-03T15:24:36.521Z,28.50
2018-05-03T15:27:03.531Z,28.70
2018-05-03T15:29:30.509Z,28.90
2018-05-03T15:31:57.504Z,29.30
2018-05-03T15:34:24.536Z,29.30
2018-05-03T15:36:51.516Z,29.00
2018-05-03T15:39:18.532Z,29.10
2018-05-03T15:41:45.533Z,29.00
2018-05-03T15:44:12.511Z,29.30
2018-05-03T15:46:39.503Z,29.70
2018-05-03T15:49:06.516Z,29.40
2018-05-03T15:51:33.496Z,29.80
2018-05-03T15:54:00.523Z,30.30
2018-05-03T15:56:27.545Z,30.60
2018-05-03T15:58:54.520Z,31.00
2018-05-03T16:01:21.508Z,31.00
2018-05-03T16:03:48.525Z,31.00
2018-05-03T16:08:44.210Z,31.10
2018-05-03T16:11:11.221Z,31.30
2018-05-03T16:13:39.146Z,31.40
2018-05-03T16:16:06.129Z,31.60
2018-05-03T16:18:33.971Z,31.20
2018-05-03T16:23:39.449Z,31.30
2018-05-03T16:26:07.156Z,31.40
2018-05-03T16:28:34.136Z,31.40
2018-05-03T16:33:29.166Z,32.40
2018-05-03T16:35:56.160Z,32.60
2018-05-03T16:38:23.180Z,33.00
2018-05-03T16:40:50.595Z,33.60
2018-05-03T16:45:44.576Z,33.70
2018-05-03T16:48:11.621Z,34.30
2018-05-03T16:53:06.656Z,34.50
2018-05-03T16:55:33.636Z,35.00
2018-05-03T16:58:00.626Z,35.00
2018-05-03T17:00:27.652Z,34.80
2018-05-03T17:02:54.630Z,35.00
2018-05-03T17:05:21.643Z,35.20
2018-05-03T17:07:48.641Z,34.70
2018-05-03T17:10:16.473Z,36.10
2018-05-03T17:12:43.452Z,35.50
2018-05-03T17:15:11.293Z,35.50
2018-05-03T17:17:39.257Z,35.70
2018-05-03T17:22:33.361Z,37.10
2018-05-03T17:25:00.350Z,37.40
2018-05-03T17:27:27.335Z,38.00
2018-05-03T17:29:54.368Z,39.60
2018-05-03T17:32:21.349Z,41.50
2018-05-03T17:34:48.344Z,43.40
2018-05-03T17:37:16.077Z,44.70
2018-05-03T17:39:43.063Z,45.80
2018-05-03T17:42:10.048Z,47.20
2018-05-03T17:44:37.065Z,48.50
2018-05-03T17:49:42.544Z,47.60
2018-05-03T17:52:10.930Z,47.30
2018-05-03T17:54:37.833Z,47.30
2018-05-03T17:57:05.684Z,48.50
2018-05-03T17:59:33.524Z,50.10
2018-05-03T18:02:00.517Z,51.30
2018-05-03T18:04:27.949Z,51.70
2018-05-03T18:06:59.106Z,53.10
2018-05-03T18:09:26.087Z,53.00
2018-05-03T18:11:53.126Z,52.40
2018-05-03T18:14:20.103Z,52.30
2018-05-03T18:16:47.085Z,52.20
2018-05-03T18:19:14.103Z,52.40
2018-05-03T18:21:44.509Z,53.90
2018-05-03T18:24:11.498Z,54.90
2018-05-03T18:26:38.530Z,55.40
2018-05-03T18:29:05.521Z,56.50
2018-05-03T18:31:32.502Z,55.70
2018-05-03T18:33:59.516Z,55.70
2018-05-03T18:36:26.518Z,55.70
2018-05-03T18:38:53.526Z,54.70
2018-05-03T18:41:20.540Z,53.80
2018-05-03T18:43:47.598Z,52.90
2018-05-03T18:46:14.515Z,54.30
2018-05-03T18:48:41.547Z,54.70
2018-05-03T18:53:37.024Z,57.00
2018-05-03T18:56:04.051Z,58.30
2018-05-03T18:58:31.044Z,57.60
2018-05-03T19:00:58.067Z,56.90
2018-05-03T19:06:05.561Z,54.60
2018-05-03T19:08:32.577Z,54.60
2018-05-03T19:10:59.556Z,52.50
2018-05-03T19:13:26.541Z,51.00
2018-05-03T19:15:53.555Z,50.40
2018-05-03T19:18:20.539Z,49.80
2018-05-03T19:23:14.633Z,53.20
2018-05-03T19:25:41.642Z,54.20
2018-05-03T19:28:08.626Z,55.40
2018-05-03T19:30:36.790Z,56.10
2018-05-03T19:33:03.778Z,61.10
2018-05-03T19:35:32.092Z,66.70
2018-05-03T19:37:59.063Z,70.10
2018-05-03T19:40:26.071Z,69.30
2018-05-03T19:42:53.051Z,70.60
2018-05-03T19:45:20.075Z,74.60
2018-05-03T19:47:47.083Z,81.90
2018-05-03T19:50:14.122Z,82.70
2018-05-03T19:52:41.138Z,81.70
2018-05-03T19:55:08.154Z,79.10
2018-05-03T19:57:35.129Z,78.20
2018-05-03T20:00:02.148Z,80.50
2018-05-03T20:02:29.134Z,80.80
2018-05-03T20:04:56.110Z,79.90
2018-05-03T20:07:23.131Z,80.70
2018-05-03T20:09:50.118Z,74.00
2018-05-03T20:12:17.103Z,72.60
2018-05-03T20:14:44.121Z,71.40
2018-05-03T20:17:11.930Z,71.50
2018-05-03T20:19:38.919Z,72.60
2018-05-03T20:22:05.962Z,71.10
2018-05-03T20:24:33.031Z,71.80
2018-05-03T20:27:00.038Z,70.90
2018-05-03T20:32:05.588Z,70.20
2018-05-03T20:34:32.604Z,69.50
2018-05-03T20:36:59.632Z,68.60
2018-05-03T20:39:26.637Z,66.60
2018-05-03T20:41:53.622Z,65.60
2018-05-03T20:44:20.643Z,67.60
2018-05-03T20:46:47.643Z,65.00
2018-05-03T20:49:14.638Z,63.60
2018-05-03T20:51:41.640Z,64.50
2018-05-03T20:54:08.620Z,69.20
2018-05-03T20:56:35.654Z,73.30
2018-05-03T20:59:02.609Z,68.70
2018-05-03T21:01:29.607Z,66.90
2018-05-03T21:03:56.602Z,75.30
2018-05-03T21:06:23.618Z,69.20
2018-05-03T21:08:50.605Z,71.50
2018-05-03T21:11:17.610Z,72.60
2018-05-03T21:13:44.733Z,73.00
2018-05-03T21:16:11.686Z,74.30
2018-05-03T21:18:38.677Z,74.50
2018-05-03T21:21:05.693Z,75.60
2018-05-03T21:23:32.679Z,75.80
2018-05-03T21:25:59.668Z,74.60
2018-05-03T21:28:26.682Z,75.20
2018-05-03T21:30:54.016Z,73.20
2018-05-03T21:33:21.001Z,72.40
2018-05-03T21:35:48.013Z,74.40
2018-05-03T21:38:14.996Z,76.10
2018-05-03T21:40:42.027Z,80.70
2018-05-03T21:43:09.057Z,83.60
2018-05-03T21:48:03.124Z,84.50
2018-05-03T21:50:30.145Z,87.50
2018-05-03T21:55:35.631Z,87.70
2018-05-03T21:58:02.622Z,88.00
2018-05-03T22:00:30.396Z,87.80
2018-05-03T22:03:00.397Z,88.60
2018-05-03T22:05:27.382Z,89.40
2018-05-03T22:07:54.366Z,90.00
2018-05-03T22:12:48.450Z,93.10
2018-05-03T22:15:15.441Z,92.50
2018-05-03T22:17:42.465Z,92.80
2018-05-03T22:20:09.447Z,94.70
2018-05-03T22:22:36.758Z,94.00
2018-05-03T22:25:03.735Z,95.00
2018-05-03T22:27:30.725Z,96.30
2018-05-03T22:29:58.179Z,96.00
2018-05-03T22:32:25.196Z,95.50
2018-05-03T22:34:52.188Z,95.20
2018-05-03T22:37:19.169Z,94.80
2018-05-03T22:39:46.188Z,95.10
2018-05-03T22:42:13.174Z,96.10
2018-05-03T22:44:40.156Z,96.40
2018-05-03T22:47:07.191Z,96.60
2018-05-03T22:49:34.172Z,95.70
2018-05-03T22:52:01.162Z,95.30
2018-05-03T22:54:28.195Z,96.40
2018-05-03T22:56:55.185Z,98.20
2018-05-03T23:01:49.286Z,99.20
2018-05-03T23:04:16.269Z,98.90
2018-05-03T23:06:43.264Z,98.60
2018-05-03T23:09:10.298Z,98.00
2018-05-03T23:11:37.282Z,98.00
2018-05-03T23:14:05.097Z,99.20
2018-05-03T23:16:32.109Z,99.50
2018-05-03T23:24:04.925Z,99.30
2018-05-03T23:26:33.200Z,98.90
2018-05-03T23:29:01.239Z,98.10
2018-05-03T23:31:28.229Z,98.00
2018-05-03T23:33:56.169Z,97.30
2018-05-03T23:36:23.206Z,97.50
2018-05-03T23:38:50.186Z,98.10
2018-05-03T23:41:18.794Z,98.30
2018-05-03T23:43:45.818Z,97.90
2018-05-03T23:46:12.803Z,98.00
2018-05-03T23:48:39.788Z,97.30
2018-05-03T23:51:06.806Z,98.40
2018-05-03T23:53:33.795Z,98.20
2018-05-03T23:56:00.770Z,98.50
2018-05-03T23:58:28.006Z,98.60
